sensor_id;sensor_type;location;lat;lon;timestamp;P1;durP1;ratioP1;P2;durP2;ratioP2
3643;SDS011;1838;50.742;7.158;2024-01-06T00:01:49;2.03;;;1.20;;
3643;SDS011;1838;50.742;7.158;2024-01-06T00:04:14;3.23;;;1.30;;
3643;SDS011;1838;50.742;7.158;2024-01-06T00:06:40;3.20;;;0.90;;
3643;SDS011;1838;50.742;7.158;2024-01-06T00:09:05;2.80;;;1.37;;
3643;SDS011;1838;50.742;7.158;2024-01-06T00:11:31;1.70;;;1.10;;
3643;SDS011;1838;50.742;7.158;2024-01-06T00:13:56;2.50;;;1.30;;
3643;SDS011;1838;50.742;7.158;2024-01-06T00:16:22;2.33;;;1.20;;
3643;SDS011;1838;50.742;7.158;2024-01-06T00:18:47;2.10;;;1.23;;
3643;SDS011;1838;50.742;7.158;2024-01-06T00:21:13;2.10;;;1.20;;
3643;SDS011;1838;50.742;7.158;2024-01-06T00:23:42;1.93;;;1.23;;
3643;SDS011;1838;50.742;7.158;2024-01-06T00:26:07;1.93;;;1.23;;
3643;SDS011;1838;50.742;7.158;2024-01-06T00:28:34;3.47;;;2.10;;
3643;SDS011;1838;50.742;7.158;2024-01-06T00:31:00;4.80;;;1.37;;
3643;SDS011;1838;50.742;7.158;2024-01-06T00:33:25;1.67;;;1.10;;
3643;SDS011;1838;50.742;7.158;2024-01-06T00:35:51;3.40;;;1.40;;
3643;SDS011;1838;50.742;7.158;2024-01-06T00:38:16;2.63;;;1.33;;
3643;SDS011;1838;50.742;7.158;2024-01-06T00:40:42;2.00;;;1.30;;
3643;SDS011;1838;50.742;7.158;2024-01-06T00:43:07;2.43;;;1.57;;
3643;SDS011;1838;50.742;7.158;2024-01-06T00:45:33;4.30;;;1.97;;
3643;SDS011;1838;50.742;7.158;2024-01-06T00:47:58;2.27;;;1.30;;
3643;SDS011;1838;50.742;7.158;2024-01-06T00:50:24;2.43;;;1.93;;
3643;SDS011;1838;50.742;7.158;2024-01-06T00:52:50;2.20;;;1.43;;
3643;SDS011;1838;50.742;7.158;2024-01-06T00:55:18;2.30;;;1.50;;
3643;SDS011;1838;50.742;7.158;2024-01-06T00:57:44;4.37;;;1.67;;
3643;SDS011;1838;50.742;7.158;2024-01-06T01:00:10;1.73;;;1.47;;
3643;SDS011;1838;50.742;7.158;2024-01-06T01:02:36;2.30;;;1.20;;
3643;SDS011;1838;50.742;7.158;2024-01-06T01:05:01;2.03;;;1.40;;
3643;SDS011;1838;50.742;7.158;2024-01-06T01:07:27;3.50;;;1.20;;
3643;SDS011;1838;50.742;7.158;2024-01-06T01:09:53;2.90;;;1.80;;
3643;SDS011;1838;50.742;7.158;2024-01-06T01:12:18;2.60;;;1.50;;
3643;SDS011;1838;50.742;7.158;2024-01-06T01:14:44;2.60;;;1.77;;
3643;SDS011;1838;50.742;7.158;2024-01-06T01:17:09;1.90;;;1.70;;
3643;SDS011;1838;50.742;7.158;2024-01-06T01:19:35;2.40;;;1.70;;
3643;SDS011;1838;50.742;7.158;2024-01-06T01:22:00;1.87;;;1.30;;
3643;SDS011;1838;50.742;7.158;2024-01-06T01:24:26;2.13;;;1.40;;
3643;SDS011;1838;50.742;7.158;2024-01-06T01:26:51;2.27;;;1.60;;
3643;SDS011;1838;50.742;7.158;2024-01-06T01:29:17;2.30;;;1.47;;
3643;SDS011;1838;50.742;7.158;2024-01-06T01:31:45;2.20;;;1.53;;
3643;SDS011;1838;50.742;7.158;2024-01-06T01:34:11;2.10;;;1.60;;
3643;SDS011;1838;50.742;7.158;2024-01-06T01:36:36;2.50;;;1.40;;
3643;SDS011;1838;50.742;7.158;2024-01-06T01:39:02;7.73;;;1.40;;
3643;SDS011;1838;50.742;7.158;2024-01-06T01:41:27;3.80;;;1.67;;
3643;SDS011;1838;50.742;7.158;2024-01-06T01:43:53;1.73;;;1.07;;
3643;SDS011;1838;50.742;7.158;2024-01-06T01:46:24;2.20;;;1.40;;
3643;SDS011;1838;50.742;7.158;2024-01-06T01:48:51;2.63;;;1.33;;
3643;SDS011;1838;50.742;7.158;2024-01-06T01:51:17;1.90;;;1.20;;
3643;SDS011;1838;50.742;7.158;2024-01-06T01:53:44;2.70;;;1.53;;
3643;SDS011;1838;50.742;7.158;2024-01-06T01:56:10;5.77;;;1.30;;
3643;SDS011;1838;50.742;7.158;2024-01-06T01:58:36;3.50;;;1.53;;
3643;SDS011;1838;50.742;7.158;2024-01-06T02:01:02;2.20;;;1.70;;
3643;SDS011;1838;50.742;7.158;2024-01-06T02:03:27;2.40;;;1.20;;
3643;SDS011;1838;50.742;7.158;2024-01-06T02:05:57;2.23;;;1.40;;
3643;SDS011;1838;50.742;7.158;2024-01-06T02:08:23;2.53;;;1.13;;
3643;SDS011;1838;50.742;7.158;2024-01-06T02:10:48;1.80;;;1.20;;
3643;SDS011;1838;50.742;7.158;2024-01-06T02:13:14;2.20;;;1.40;;
3643;SDS011;1838;50.742;7.158;2024-01-06T02:15:40;1.97;;;1.00;;
3643;SDS011;1838;50.742;7.158;2024-01-06T02:18:05;2.33;;;1.60;;
3643;SDS011;1838;50.742;7.158;2024-01-06T02:20:31;2.43;;;1.20;;
3643;SDS011;1838;50.742;7.158;2024-01-06T02:22:57;2.20;;;1.70;;
3643;SDS011;1838;50.742;7.158;2024-01-06T02:25:24;2.87;;;1.90;;
3643;SDS011;1838;50.742;7.158;2024-01-06T02:27:50;2.60;;;1.53;;
3643;SDS011;1838;50.742;7.158;2024-01-06T02:30:15;3.40;;;1.50;;
3643;SDS011;1838;50.742;7.158;2024-01-06T02:32:41;2.80;;;2.10;;
3643;SDS011;1838;50.742;7.158;2024-01-06T02:35:06;3.10;;;1.40;;
3643;SDS011;1838;50.742;7.158;2024-01-06T02:37:32;3.00;;;1.67;;
3643;SDS011;1838;50.742;7.158;2024-01-06T02:39:58;2.90;;;1.67;;
3643;SDS011;1838;50.742;7.158;2024-01-06T02:42:23;2.63;;;1.80;;
3643;SDS011;1838;50.742;7.158;2024-01-06T02:44:50;2.60;;;1.90;;
3643;SDS011;1838;50.742;7.158;2024-01-06T02:47:15;2.20;;;1.40;;
3643;SDS011;1838;50.742;7.158;2024-01-06T02:49:41;2.47;;;2.00;;
3643;SDS011;1838;50.742;7.158;2024-01-06T02:52:07;2.47;;;1.70;;
3643;SDS011;1838;50.742;7.158;2024-01-06T02:54:32;8.40;;;2.27;;
3643;SDS011;1838;50.742;7.158;2024-01-06T02:56:58;3.17;;;2.50;;
3643;SDS011;1838;50.742;7.158;2024-01-06T02:59:23;3.90;;;2.50;;
3643;SDS011;1838;50.742;7.158;2024-01-06T03:01:49;3.40;;;2.33;;
3643;SDS011;1838;50.742;7.158;2024-01-06T03:04:14;2.70;;;2.33;;
3643;SDS011;1838;50.742;7.158;2024-01-06T03:06:40;2.67;;;2.20;;
3643;SDS011;1838;50.742;7.158;2024-01-06T03:09:05;3.00;;;2.50;;
3643;SDS011;1838;50.742;7.158;2024-01-06T03:11:31;3.87;;;2.87;;
3643;SDS011;1838;50.742;7.158;2024-01-06T03:13:56;3.57;;;2.50;;
3643;SDS011;1838;50.742;7.158;2024-01-06T03:16:21;4.33;;;2.70;;
3643;SDS011;1838;50.742;7.158;2024-01-06T03:18:47;7.00;;;3.07;;
3643;SDS011;1838;50.742;7.158;2024-01-06T03:21:17;3.20;;;2.27;;
3643;SDS011;1838;50.742;7.158;2024-01-06T03:23:49;4.07;;;2.50;;
3643;SDS011;1838;50.742;7.158;2024-01-06T03:26:14;3.50;;;3.00;;
3643;SDS011;1838;50.742;7.158;2024-01-06T03:28:41;4.07;;;2.85;;
3643;SDS011;1838;50.742;7.158;2024-01-06T03:31:07;5.27;;;3.20;;
3643;SDS011;1838;50.742;7.158;2024-01-06T03:33:32;4.40;;;2.90;;
3643;SDS011;1838;50.742;7.158;2024-01-06T03:35:58;4.90;;;3.80;;
3643;SDS011;1838;50.742;7.158;2024-01-06T03:38:23;6.63;;;3.77;;
3643;SDS011;1838;50.742;7.158;2024-01-06T03:40:49;5.80;;;4.30;;
3643;SDS011;1838;50.742;7.158;2024-01-06T03:43:14;4.73;;;3.77;;
3643;SDS011;1838;50.742;7.158;2024-01-06T03:45:40;5.50;;;4.23;;
3643;SDS011;1838;50.742;7.158;2024-01-06T03:48:06;6.87;;;4.20;;
3643;SDS011;1838;50.742;7.158;2024-01-06T03:50:31;5.93;;;4.10;;
3643;SDS011;1838;50.742;7.158;2024-01-06T03:52:57;6.17;;;4.10;;
3643;SDS011;1838;50.742;7.158;2024-01-06T03:55:22;6.90;;;4.30;;
3643;SDS011;1838;50.742;7.158;2024-01-06T03:57:48;9.90;;;5.43;;
3643;SDS011;1838;50.742;7.158;2024-01-06T04:00:14;6.30;;;4.23;;
3643;SDS011;1838;50.742;7.158;2024-01-06T04:02:39;6.47;;;4.73;;
3643;SDS011;1838;50.742;7.158;2024-01-06T04:05:05;6.90;;;4.83;;
3643;SDS011;1838;50.742;7.158;2024-01-06T04:07:30;11.20;;;5.07;;
3643;SDS011;1838;50.742;7.158;2024-01-06T04:09:56;10.03;;;5.30;;
3643;SDS011;1838;50.742;7.158;2024-01-06T04:12:22;8.87;;;4.87;;
3643;SDS011;1838;50.742;7.158;2024-01-06T04:14:47;8.00;;;5.03;;
3643;SDS011;1838;50.742;7.158;2024-01-06T04:17:13;9.43;;;5.30;;
3643;SDS011;1838;50.742;7.158;2024-01-06T04:19:38;7.43;;;4.00;;
3643;SDS011;1838;50.742;7.158;2024-01-06T04:22:04;7.47;;;5.20;;
3643;SDS011;1838;50.742;7.158;2024-01-06T04:24:29;8.57;;;4.73;;
3643;SDS011;1838;50.742;7.158;2024-01-06T04:26:55;7.90;;;5.30;;
3643;SDS011;1838;50.742;7.158;2024-01-06T04:29:20;6.30;;;4.73;;
3643;SDS011;1838;50.742;7.158;2024-01-06T04:31:46;8.17;;;5.57;;
3643;SDS011;1838;50.742;7.158;2024-01-06T04:34:11;9.60;;;5.60;;
3643;SDS011;1838;50.742;7.158;2024-01-06T04:36:37;12.53;;;6.77;;
3643;SDS011;1838;50.742;7.158;2024-01-06T04:39:03;9.53;;;5.13;;
3643;SDS011;1838;50.742;7.158;2024-01-06T04:41:28;9.83;;;6.00;;
3643;SDS011;1838;50.742;7.158;2024-01-06T04:43:54;9.10;;;5.40;;
3643;SDS011;1838;50.742;7.158;2024-01-06T04:46:19;9.93;;;5.37;;
3643;SDS011;1838;50.742;7.158;2024-01-06T04:48:44;11.07;;;5.83;;
3643;SDS011;1838;50.742;7.158;2024-01-06T04:51:10;14.43;;;7.10;;
3643;SDS011;1838;50.742;7.158;2024-01-06T04:53:36;13.53;;;7.07;;
3643;SDS011;1838;50.742;7.158;2024-01-06T04:56:01;11.20;;;6.00;;
3643;SDS011;1838;50.742;7.158;2024-01-06T04:58:27;9.50;;;6.03;;
3643;SDS011;1838;50.742;7.158;2024-01-06T05:00:53;12.60;;;5.53;;
3643;SDS011;1838;50.742;7.158;2024-01-06T05:03:18;10.47;;;7.00;;
3643;SDS011;1838;50.742;7.158;2024-01-06T05:05:44;13.30;;;6.33;;
3643;SDS011;1838;50.742;7.158;2024-01-06T05:08:09;14.90;;;7.37;;
3643;SDS011;1838;50.742;7.158;2024-01-06T05:10:35;12.97;;;7.10;;
3643;SDS011;1838;50.742;7.158;2024-01-06T05:13:00;13.03;;;7.20;;
3643;SDS011;1838;50.742;7.158;2024-01-06T05:15:26;14.07;;;7.67;;
3643;SDS011;1838;50.742;7.158;2024-01-06T05:17:51;13.40;;;7.47;;
3643;SDS011;1838;50.742;7.158;2024-01-06T05:20:17;16.10;;;8.43;;
3643;SDS011;1838;50.742;7.158;2024-01-06T05:22:42;16.33;;;8.80;;
3643;SDS011;1838;50.742;7.158;2024-01-06T05:25:08;13.77;;;8.70;;
3643;SDS011;1838;50.742;7.158;2024-01-06T05:27:34;18.27;;;8.77;;
3643;SDS011;1838;50.742;7.158;2024-01-06T05:30:00;21.77;;;9.33;;
3643;SDS011;1838;50.742;7.158;2024-01-06T05:32:25;16.50;;;8.27;;
3643;SDS011;1838;50.742;7.158;2024-01-06T05:34:51;17.60;;;8.90;;
3643;SDS011;1838;50.742;7.158;2024-01-06T05:37:16;14.07;;;7.53;;
3643;SDS011;1838;50.742;7.158;2024-01-06T05:39:42;14.97;;;7.73;;
3643;SDS011;1838;50.742;7.158;2024-01-06T05:42:08;20.03;;;9.00;;
3643;SDS011;1838;50.742;7.158;2024-01-06T05:44:36;16.40;;;7.33;;
3643;SDS011;1838;50.742;7.158;2024-01-06T05:47:02;16.27;;;7.50;;
3643;SDS011;1838;50.742;7.158;2024-01-06T05:49:28;15.80;;;8.23;;
3643;SDS011;1838;50.742;7.158;2024-01-06T05:51:53;12.60;;;7.13;;
3643;SDS011;1838;50.742;7.158;2024-01-06T05:54:18;14.10;;;7.80;;
3643;SDS011;1838;50.742;7.158;2024-01-06T05:56:44;18.07;;;9.13;;
3643;SDS011;1838;50.742;7.158;2024-01-06T05:59:09;17.70;;;8.37;;
3643;SDS011;1838;50.742;7.158;2024-01-06T06:01:35;15.03;;;8.50;;
3643;SDS011;1838;50.742;7.158;2024-01-06T06:04:00;15.97;;;7.17;;
3643;SDS011;1838;50.742;7.158;2024-01-06T06:06:26;16.57;;;8.20;;
3643;SDS011;1838;50.742;7.158;2024-01-06T06:08:52;25.87;;;9.43;;
3643;SDS011;1838;50.742;7.158;2024-01-06T06:11:17;20.47;;;9.43;;
3643;SDS011;1838;50.742;7.158;2024-01-06T06:13:43;23.73;;;10.37;;
3643;SDS011;1838;50.742;7.158;2024-01-06T06:16:09;19.73;;;10.50;;
3643;SDS011;1838;50.742;7.158;2024-01-06T06:18:35;17.03;;;10.07;;
3643;SDS011;1838;50.742;7.158;2024-01-06T06:21:01;23.70;;;11.47;;
3643;SDS011;1838;50.742;7.158;2024-01-06T06:23:29;25.93;;;11.43;;
3643;SDS011;1838;50.742;7.158;2024-01-06T06:25:57;30.03;;;12.27;;
3643;SDS011;1838;50.742;7.158;2024-01-06T06:28:24;26.17;;;13.67;;
3643;SDS011;1838;50.742;7.158;2024-01-06T06:30:50;26.90;;;13.17;;
3643;SDS011;1838;50.742;7.158;2024-01-06T06:33:16;25.20;;;12.60;;
3643;SDS011;1838;50.742;7.158;2024-01-06T06:35:42;27.87;;;14.07;;
3643;SDS011;1838;50.742;7.158;2024-01-06T06:38:07;37.63;;;17.80;;
3643;SDS011;1838;50.742;7.158;2024-01-06T06:40:33;39.53;;;17.60;;
3643;SDS011;1838;50.742;7.158;2024-01-06T06:42:58;41.00;;;17.13;;
3643;SDS011;1838;50.742;7.158;2024-01-06T06:45:24;40.30;;;17.00;;
3643;SDS011;1838;50.742;7.158;2024-01-06T06:47:49;42.07;;;17.53;;
3643;SDS011;1838;50.742;7.158;2024-01-06T06:50:15;40.33;;;17.73;;
3643;SDS011;1838;50.742;7.158;2024-01-06T06:52:42;50.13;;;20.07;;
3643;SDS011;1838;50.742;7.158;2024-01-06T06:55:07;49.57;;;20.93;;
3643;SDS011;1838;50.742;7.158;2024-01-06T06:57:33;44.60;;;18.40;;
3643;SDS011;1838;50.742;7.158;2024-01-06T06:59:59;42.87;;;18.10;;
3643;SDS011;1838;50.742;7.158;2024-01-06T07:02:25;36.67;;;17.20;;
3643;SDS011;1838;50.742;7.158;2024-01-06T07:04:51;36.97;;;16.30;;
3643;SDS011;1838;50.742;7.158;2024-01-06T07:07:16;40.80;;;17.53;;
3643;SDS011;1838;50.742;7.158;2024-01-06T07:09:42;45.37;;;16.17;;
3643;SDS011;1838;50.742;7.158;2024-01-06T07:12:07;40.47;;;17.00;;
3643;SDS011;1838;50.742;7.158;2024-01-06T07:14:33;36.83;;;15.73;;
3643;SDS011;1838;50.742;7.158;2024-01-06T07:16:59;39.50;;;16.40;;
3643;SDS011;1838;50.742;7.158;2024-01-06T07:19:24;33.77;;;14.00;;
3643;SDS011;1838;50.742;7.158;2024-01-06T07:21:49;31.37;;;14.67;;
3643;SDS011;1838;50.742;7.158;2024-01-06T07:24:15;24.17;;;12.00;;
3643;SDS011;1838;50.742;7.158;2024-01-06T07:26:41;25.97;;;12.10;;
3643;SDS011;1838;50.742;7.158;2024-01-06T07:29:06;33.83;;;12.57;;
3643;SDS011;1838;50.742;7.158;2024-01-06T07:31:33;29.73;;;13.90;;
3643;SDS011;1838;50.742;7.158;2024-01-06T07:33:59;23.10;;;12.53;;
3643;SDS011;1838;50.742;7.158;2024-01-06T07:36:24;33.40;;;12.90;;
3643;SDS011;1838;50.742;7.158;2024-01-06T07:38:50;29.00;;;12.93;;
3643;SDS011;1838;50.742;7.158;2024-01-06T07:41:17;26.40;;;12.20;;
3643;SDS011;1838;50.742;7.158;2024-01-06T07:43:42;27.33;;;13.67;;
3643;SDS011;1838;50.742;7.158;2024-01-06T07:46:08;27.90;;;12.63;;
3643;SDS011;1838;50.742;7.158;2024-01-06T07:48:34;27.30;;;11.40;;
3643;SDS011;1838;50.742;7.158;2024-01-06T07:51:00;31.37;;;14.07;;
3643;SDS011;1838;50.742;7.158;2024-01-06T07:53:26;27.00;;;13.23;;
3643;SDS011;1838;50.742;7.158;2024-01-06T07:55:52;25.30;;;13.33;;
3643;SDS011;1838;50.742;7.158;2024-01-06T07:58:17;31.87;;;14.17;;
3643;SDS011;1838;50.742;7.158;2024-01-06T08:00:43;35.47;;;16.00;;
3643;SDS011;1838;50.742;7.158;2024-01-06T08:03:08;35.63;;;15.63;;
3643;SDS011;1838;50.742;7.158;2024-01-06T08:05:36;34.60;;;15.47;;
3643;SDS011;1838;50.742;7.158;2024-01-06T08:08:02;33.07;;;15.07;;
3643;SDS011;1838;50.742;7.158;2024-01-06T08:10:29;35.40;;;16.90;;
3643;SDS011;1838;50.742;7.158;2024-01-06T08:12:54;32.57;;;14.67;;
3643;SDS011;1838;50.742;7.158;2024-01-06T08:15:20;37.37;;;16.13;;
3643;SDS011;1838;50.742;7.158;2024-01-06T08:17:45;31.53;;;15.07;;
3643;SDS011;1838;50.742;7.158;2024-01-06T08:20:11;33.30;;;14.70;;
3643;SDS011;1838;50.742;7.158;2024-01-06T08:22:37;23.13;;;12.50;;
3643;SDS011;1838;50.742;7.158;2024-01-06T08:25:03;25.00;;;12.53;;
3643;SDS011;1838;50.742;7.158;2024-01-06T08:27:31;22.13;;;10.67;;
3643;SDS011;1838;50.742;7.158;2024-01-06T08:29:56;26.03;;;11.37;;
3643;SDS011;1838;50.742;7.158;2024-01-06T08:32:22;29.43;;;12.40;;
3643;SDS011;1838;50.742;7.158;2024-01-06T08:34:47;23.47;;;10.67;;
3643;SDS011;1838;50.742;7.158;2024-01-06T08:37:13;24.90;;;11.50;;
3643;SDS011;1838;50.742;7.158;2024-01-06T08:39:39;26.53;;;12.53;;
3643;SDS011;1838;50.742;7.158;2024-01-06T08:42:05;28.73;;;11.63;;
3643;SDS011;1838;50.742;7.158;2024-01-06T08:44:30;26.03;;;11.10;;
3643;SDS011;1838;50.742;7.158;2024-01-06T08:46:56;26.83;;;11.97;;
3643;SDS011;1838;50.742;7.158;2024-01-06T08:49:21;25.20;;;12.20;;
3643;SDS011;1838;50.742;7.158;2024-01-06T08:51:47;24.07;;;11.40;;
3643;SDS011;1838;50.742;7.158;2024-01-06T08:54:12;29.70;;;13.20;;
3643;SDS011;1838;50.742;7.158;2024-01-06T08:56:38;27.80;;;12.70;;
3643;SDS011;1838;50.742;7.158;2024-01-06T08:59:03;26.10;;;12.90;;
3643;SDS011;1838;50.742;7.158;2024-01-06T09:01:29;30.20;;;13.70;;
3643;SDS011;1838;50.742;7.158;2024-01-06T09:03:56;22.63;;;11.57;;
3643;SDS011;1838;50.742;7.158;2024-01-06T09:06:22;24.30;;;11.32;;
3643;SDS011;1838;50.742;7.158;2024-01-06T09:08:48;26.13;;;12.77;;
3643;SDS011;1838;50.742;7.158;2024-01-06T09:11:14;23.70;;;11.93;;
3643;SDS011;1838;50.742;7.158;2024-01-06T09:13:39;22.07;;;11.30;;
3643;SDS011;1838;50.742;7.158;2024-01-06T09:16:05;22.50;;;11.13;;
3643;SDS011;1838;50.742;7.158;2024-01-06T09:18:30;24.77;;;12.50;;
3643;SDS011;1838;50.742;7.158;2024-01-06T09:20:56;25.17;;;13.00;;
3643;SDS011;1838;50.742;7.158;2024-01-06T09:23:22;27.10;;;11.97;;
3643;SDS011;1838;50.742;7.158;2024-01-06T09:25:48;29.53;;;13.80;;
3643;SDS011;1838;50.742;7.158;2024-01-06T09:28:17;27.30;;;13.10;;
3643;SDS011;1838;50.742;7.158;2024-01-06T09:30:43;26.30;;;13.17;;
3643;SDS011;1838;50.742;7.158;2024-01-06T09:33:08;24.50;;;12.30;;
3643;SDS011;1838;50.742;7.158;2024-01-06T09:35:34;30.83;;;13.83;;
3643;SDS011;1838;50.742;7.158;2024-01-06T09:38:00;24.43;;;12.73;;
3643;SDS011;1838;50.742;7.158;2024-01-06T09:40:25;31.30;;;13.37;;
3643;SDS011;1838;50.742;7.158;2024-01-06T09:42:51;27.40;;;13.10;;
3643;SDS011;1838;50.742;7.158;2024-01-06T09:45:18;24.57;;;11.97;;
3643;SDS011;1838;50.742;7.158;2024-01-06T09:47:48;30.70;;;13.03;;
3643;SDS011;1838;50.742;7.158;2024-01-06T09:50:14;29.43;;;13.37;;
3643;SDS011;1838;50.742;7.158;2024-01-06T09:52:45;30.00;;;14.13;;
3643;SDS011;1838;50.742;7.158;2024-01-06T09:55:17;36.97;;;14.33;;
3643;SDS011;1838;50.742;7.158;2024-01-06T09:57:44;35.67;;;13.60;;
3643;SDS011;1838;50.742;7.158;2024-01-06T10:00:10;38.90;;;14.30;;
3643;SDS011;1838;50.742;7.158;2024-01-06T10:02:36;32.47;;;14.27;;
3643;SDS011;1838;50.742;7.158;2024-01-06T10:05:01;35.03;;;13.30;;
3643;SDS011;1838;50.742;7.158;2024-01-06T10:07:27;33.57;;;13.73;;
3643;SDS011;1838;50.742;7.158;2024-01-06T10:09:56;27.50;;;12.83;;
3643;SDS011;1838;50.742;7.158;2024-01-06T10:12:25;33.50;;;14.50;;
3643;SDS011;1838;50.742;7.158;2024-01-06T10:14:51;35.20;;;14.60;;
3643;SDS011;1838;50.742;7.158;2024-01-06T10:17:17;29.17;;;13.07;;
3643;SDS011;1838;50.742;7.158;2024-01-06T10:19:46;30.53;;;13.20;;
3643;SDS011;1838;50.742;7.158;2024-01-06T10:22:13;25.63;;;12.70;;
3643;SDS011;1838;50.742;7.158;2024-01-06T10:24:39;38.40;;;14.73;;
3643;SDS011;1838;50.742;7.158;2024-01-06T10:27:04;32.27;;;13.90;;
3643;SDS011;1838;50.742;7.158;2024-01-06T10:29:30;31.27;;;14.57;;
3643;SDS011;1838;50.742;7.158;2024-01-06T10:31:56;29.07;;;13.00;;
3643;SDS011;1838;50.742;7.158;2024-01-06T10:34:23;24.20;;;12.07;;
3643;SDS011;1838;50.742;7.158;2024-01-06T10:36:49;29.23;;;12.30;;
3643;SDS011;1838;50.742;7.158;2024-01-06T10:39:17;38.72;;;13.60;;
3643;SDS011;1838;50.742;7.158;2024-01-06T10:41:43;23.80;;;10.37;;
3643;SDS011;1838;50.742;7.158;2024-01-06T10:44:09;24.30;;;10.30;;
3643;SDS011;1838;50.742;7.158;2024-01-06T10:46:36;25.93;;;8.87;;
3643;SDS011;1838;50.742;7.158;2024-01-06T10:49:03;21.97;;;10.10;;
3643;SDS011;1838;50.742;7.158;2024-01-06T10:51:30;23.67;;;9.40;;
3643;SDS011;1838;50.742;7.158;2024-01-06T10:53:58;20.40;;;9.50;;
3643;SDS011;1838;50.742;7.158;2024-01-06T10:56:26;22.60;;;9.67;;
3643;SDS011;1838;50.742;7.158;2024-01-06T10:58:55;24.03;;;10.37;;
3643;SDS011;1838;50.742;7.158;2024-01-06T11:01:22;21.23;;;9.37;;
3643;SDS011;1838;50.742;7.158;2024-01-06T11:03:49;23.10;;;9.50;;
3643;SDS011;1838;50.742;7.158;2024-01-06T11:06:15;20.73;;;9.60;;
3643;SDS011;1838;50.742;7.158;2024-01-06T11:11:32;21.50;;;9.83;;
3643;SDS011;1838;50.742;7.158;2024-01-06T11:17:02;20.90;;;9.37;;
3643;SDS011;1838;50.742;7.158;2024-01-06T11:27:33;16.67;;;8.03;;
3643;SDS011;1838;50.742;7.158;2024-01-06T11:30:01;18.47;;;8.87;;
3643;SDS011;1838;50.742;7.158;2024-01-06T11:32:34;21.63;;;8.13;;
3643;SDS011;1838;50.742;7.158;2024-01-06T11:35:06;15.00;;;7.13;;
3643;SDS011;1838;50.742;7.158;2024-01-06T11:37:35;16.77;;;7.27;;
3643;SDS011;1838;50.742;7.158;2024-01-06T11:40:10;17.30;;;7.67;;
3643;SDS011;1838;50.742;7.158;2024-01-06T11:42:43;15.57;;;6.87;;
3643;SDS011;1838;50.742;7.158;2024-01-06T11:45:10;12.43;;;6.43;;
3643;SDS011;1838;50.742;7.158;2024-01-06T11:47:37;15.80;;;7.67;;
3643;SDS011;1838;50.742;7.158;2024-01-06T11:50:04;15.40;;;8.10;;
3643;SDS011;1838;50.742;7.158;2024-01-06T11:52:31;19.83;;;7.90;;
3643;SDS011;1838;50.742;7.158;2024-01-06T11:54:57;21.40;;;8.40;;
3643;SDS011;1838;50.742;7.158;2024-01-06T11:57:24;16.53;;;8.00;;
3643;SDS011;1838;50.742;7.158;2024-01-06T11:59:50;21.00;;;8.07;;
3643;SDS011;1838;50.742;7.158;2024-01-06T12:02:17;13.70;;;7.47;;
3643;SDS011;1838;50.742;7.158;2024-01-06T12:04:47;19.03;;;8.90;;
3643;SDS011;1838;50.742;7.158;2024-01-06T12:07:16;16.23;;;8.40;;
3643;SDS011;1838;50.742;7.158;2024-01-06T12:09:42;16.87;;;8.03;;
3643;SDS011;1838;50.742;7.158;2024-01-06T12:12:08;17.60;;;8.60;;
3643;SDS011;1838;50.742;7.158;2024-01-06T12:14:35;23.00;;;9.60;;
3643;SDS011;1838;50.742;7.158;2024-01-06T12:17:01;18.63;;;9.10;;
3643;SDS011;1838;50.742;7.158;2024-01-06T12:19:33;25.37;;;9.93;;
3643;SDS011;1838;50.742;7.158;2024-01-06T12:21:58;20.70;;;10.67;;
3643;SDS011;1838;50.742;7.158;2024-01-06T12:24:26;20.93;;;9.83;;
3643;SDS011;1838;50.742;7.158;2024-01-06T12:26:52;23.60;;;9.80;;
3643;SDS011;1838;50.742;7.158;2024-01-06T12:29:19;20.90;;;10.07;;
3643;SDS011;1838;50.742;7.158;2024-01-06T12:31:45;20.13;;;9.70;;
3643;SDS011;1838;50.742;7.158;2024-01-06T12:34:11;22.93;;;9.63;;
3643;SDS011;1838;50.742;7.158;2024-01-06T12:36:37;25.10;;;10.47;;
3643;SDS011;1838;50.742;7.158;2024-01-06T12:39:04;28.77;;;12.40;;
3643;SDS011;1838;50.742;7.158;2024-01-06T12:41:30;25.60;;;10.43;;
3643;SDS011;1838;50.742;7.158;2024-01-06T12:43:58;28.90;;;10.60;;
3643;SDS011;1838;50.742;7.158;2024-01-06T12:46:25;26.67;;;11.63;;
3643;SDS011;1838;50.742;7.158;2024-01-06T12:48:50;23.70;;;11.30;;
3643;SDS011;1838;50.742;7.158;2024-01-06T12:51:16;24.53;;;11.20;;
3643;SDS011;1838;50.742;7.158;2024-01-06T12:53:41;27.17;;;10.70;;
3643;SDS011;1838;50.742;7.158;2024-01-06T12:56:07;23.13;;;10.80;;
3643;SDS011;1838;50.742;7.158;2024-01-06T12:58:33;16.93;;;8.90;;
3643;SDS011;1838;50.742;7.158;2024-01-06T13:00:59;26.97;;;10.23;;
3643;SDS011;1838;50.742;7.158;2024-01-06T13:03:24;25.20;;;10.10;;
3643;SDS011;1838;50.742;7.158;2024-01-06T13:05:50;24.60;;;10.23;;
3643;SDS011;1838;50.742;7.158;2024-01-06T13:08:15;26.93;;;11.30;;
3643;SDS011;1838;50.742;7.158;2024-01-06T13:10:41;27.20;;;11.47;;
3643;SDS011;1838;50.742;7.158;2024-01-06T13:13:06;25.67;;;11.53;;
3643;SDS011;1838;50.742;7.158;2024-01-06T13:15:32;28.97;;;11.80;;
3643;SDS011;1838;50.742;7.158;2024-01-06T13:17:57;27.90;;;11.33;;
3643;SDS011;1838;50.742;7.158;2024-01-06T13:20:23;22.30;;;10.83;;
3643;SDS011;1838;50.742;7.158;2024-01-06T13:22:48;29.77;;;13.37;;
3643;SDS011;1838;50.742;7.158;2024-01-06T13:25:16;31.83;;;12.27;;
3643;SDS011;1838;50.742;7.158;2024-01-06T13:27:42;29.30;;;12.70;;
3643;SDS011;1838;50.742;7.158;2024-01-06T13:30:07;31.33;;;12.90;;
3643;SDS011;1838;50.742;7.158;2024-01-06T13:32:33;29.73;;;12.20;;
3643;SDS011;1838;50.742;7.158;2024-01-06T13:34:59;31.43;;;12.90;;
3643;SDS011;1838;50.742;7.158;2024-01-06T13:37:27;32.00;;;13.27;;
3643;SDS011;1838;50.742;7.158;2024-01-06T13:39:52;34.77;;;13.60;;
3643;SDS011;1838;50.742;7.158;2024-01-06T13:42:18;33.83;;;13.50;;
3643;SDS011;1838;50.742;7.158;2024-01-06T13:44:46;37.50;;;14.47;;
3643;SDS011;1838;50.742;7.158;2024-01-06T13:47:13;32.27;;;14.20;;
3643;SDS011;1838;50.742;7.158;2024-01-06T13:49:39;31.30;;;12.83;;
3643;SDS011;1838;50.742;7.158;2024-01-06T13:52:04;43.30;;;14.80;;
3643;SDS011;1838;50.742;7.158;2024-01-06T13:54:32;20.63;;;9.60;;
3643;SDS011;1838;50.742;7.158;2024-01-06T13:56:58;23.83;;;8.90;;
3643;SDS011;1838;50.742;7.158;2024-01-06T13:59:24;18.80;;;8.37;;
3643;SDS011;1838;50.742;7.158;2024-01-06T14:01:50;17.40;;;8.40;;
3643;SDS011;1838;50.742;7.158;2024-01-06T14:04:15;22.33;;;9.93;;
3643;SDS011;1838;50.742;7.158;2024-01-06T14:06:42;26.13;;;11.67;;
3643;SDS011;1838;50.742;7.158;2024-01-06T14:09:08;22.97;;;10.93;;
3643;SDS011;1838;50.742;7.158;2024-01-06T14:11:34;25.97;;;12.37;;
3643;SDS011;1838;50.742;7.158;2024-01-06T14:13:59;32.87;;;11.37;;
3643;SDS011;1838;50.742;7.158;2024-01-06T14:16:25;33.80;;;11.93;;
3643;SDS011;1838;50.742;7.158;2024-01-06T14:18:51;21.57;;;9.80;;
3643;SDS011;1838;50.742;7.158;2024-01-06T14:21:18;30.17;;;11.90;;
3643;SDS011;1838;50.742;7.158;2024-01-06T14:23:47;28.87;;;10.53;;
3643;SDS011;1838;50.742;7.158;2024-01-06T14:26:14;22.63;;;10.53;;
3643;SDS011;1838;50.742;7.158;2024-01-06T14:28:46;25.13;;;10.70;;
3643;SDS011;1838;50.742;7.158;2024-01-06T14:31:12;26.20;;;10.33;;
3643;SDS011;1838;50.742;7.158;2024-01-06T14:33:38;25.10;;;9.87;;
3643;SDS011;1838;50.742;7.158;2024-01-06T14:36:03;21.27;;;8.77;;
3643;SDS011;1838;50.742;7.158;2024-01-06T14:38:29;21.20;;;8.33;;
3643;SDS011;1838;50.742;7.158;2024-01-06T14:40:55;21.50;;;8.47;;
3643;SDS011;1838;50.742;7.158;2024-01-06T14:43:20;21.00;;;8.67;;
3643;SDS011;1838;50.742;7.158;2024-01-06T14:45:46;20.53;;;8.30;;
3643;SDS011;1838;50.742;7.158;2024-01-06T14:48:12;18.93;;;7.70;;
3643;SDS011;1838;50.742;7.158;2024-01-06T14:50:38;21.67;;;9.33;;
3643;SDS011;1838;50.742;7.158;2024-01-06T14:53:03;24.17;;;9.17;;
3643;SDS011;1838;50.742;7.158;2024-01-06T14:55:29;21.27;;;8.87;;
3643;SDS011;1838;50.742;7.158;2024-01-06T14:57:55;20.60;;;9.33;;
3643;SDS011;1838;50.742;7.158;2024-01-06T15:00:20;25.00;;;10.73;;
3643;SDS011;1838;50.742;7.158;2024-01-06T15:02:46;29.07;;;12.87;;
3643;SDS011;1838;50.742;7.158;2024-01-06T15:05:12;34.20;;;13.23;;
3643;SDS011;1838;50.742;7.158;2024-01-06T15:07:37;29.65;;;11.45;;